createdAt,value
2022-07-25T00:00:00.192Z,100.0
2022-07-25T00:01:00.392Z,100.0
2022-07-25T00:02:00.521Z,100.0
2022-07-25T00:03:00.272Z,100.0
2022-07-25T00:04:00.224Z,100.0
2022-07-25T00:05:00.397Z,100.0
2022-07-25T00:06:00.158Z,100.0
2022-07-25T00:07:00.231Z,100.0
2022-07-25T00:08:00.164Z,100.0
2022-07-25T00:09:00.379Z,100.0
2022-07-25T00:10:00.179Z,100.0
2022-07-25T00:11:00.161Z,100.0
2022-07-25T00:12:00.442Z,100.0
2022-07-25T00:13:00.167Z,100.0
2022-07-25T00:14:00.159Z,100.0
2022-07-25T00:15:00.158Z,100.0
2022-07-25T00:16:00.263Z,100.0
2022-07-25T00:17:00.170Z,100.0
2022-07-25T00:18:00.264Z,100.0
2022-07-25T00:19:00.194Z,100.0
2022-07-25T00:20:00.262Z,100.0
2022-07-25T00:21:00.191Z,100.0
2022-07-25T00:22:00.164Z,100.0
2022-07-25T00:23:00.176Z,100.0
2022-07-25T00:24:00.224Z,100.0
2022-07-25T00:25:00.167Z,100.0
2022-07-25T00:26:00.232Z,100.0
2022-07-25T00:27:00.162Z,100.0
2022-07-25T00:28:00.195Z,100.0
2022-07-25T00:29:00.178Z,100.0
2022-07-25T00:30:00.221Z,100.0
2022-07-25T00:31:00.271Z,100.0
2022-07-25T00:32:00.343Z,100.0
2022-07-25T00:33:00.172Z,100.0
2022-07-25T00:34:00.190Z,100.0
2022-07-25T00:35:00.177Z,100.0
2022-07-25T00:36:00.186Z,100.0
2022-07-25T00:37:00.177Z,100.0
2022-07-25T00:38:00.175Z,100.0
2022-07-25T00:39:00.189Z,100.0
2022-07-25T00:40:00.198Z,100.0
2022-07-25T00:41:01.154Z,100.0
2022-07-25T00:42:00.182Z,100.0
2022-07-25T00:43:00.176Z,100.0
2022-07-25T00:44:00.160Z,100.0
2022-07-25T00:45:00.337Z,100.0
2022-07-25T00:46:00.572Z,100.0
2022-07-25T00:47:00.280Z,100.0
2022-07-25T00:48:00.191Z,100.0
2022-07-25T00:49:00.286Z,100.0
2022-07-25T00:50:00.213Z,100.0
2022-07-25T00:51:00.165Z,100.0
2022-07-25T00:52:00.565Z,100.0
2022-07-25T00:53:00.261Z,100.0
2022-07-25T00:54:00.247Z,100.0
2022-07-25T00:55:00.300Z,100.0
2022-07-25T00:56:00.301Z,100.0
2022-07-25T00:57:00.204Z,100.0
2022-07-25T00:58:00.181Z,100.0
2022-07-25T00:59:00.223Z,100.0
2022-07-25T01:00:00.228Z,100.0
2022-07-25T01:01:00.243Z,100.0
2022-07-25T01:02:00.259Z,100.0
2022-07-25T01:03:00.276Z,100.0
2022-07-25T01:04:00.407Z,100.0
2022-07-25T01:05:00.816Z,100.0
2022-07-25T01:06:00.178Z,100.0
2022-07-25T01:07:00.835Z,100.0
2022-07-25T01:08:00.685Z,100.0
2022-07-25T01:09:00.436Z,100.0
2022-07-25T01:10:00.424Z,100.0
2022-07-25T01:11:00.195Z,100.0
2022-07-25T01:12:00.198Z,100.0
2022-07-25T01:13:00.271Z,100.0
2022-07-25T01:14:00.206Z,100.0
2022-07-25T01:15:00.181Z,100.0
2022-07-25T01:16:00.256Z,100.0
2022-07-25T01:17:00.219Z,100.0
2022-07-25T01:18:00.212Z,100.0
2022-07-25T01:19:00.189Z,100.0
2022-07-25T01:20:00.258Z,100.0
2022-07-25T01:21:00.657Z,100.0
2022-07-25T01:22:00.225Z,100.0
2022-07-25T01:23:00.406Z,100.0
2022-07-25T01:24:00.212Z,100.0
2022-07-25T01:25:00.191Z,100.0
2022-07-25T01:26:00.192Z,100.0
2022-07-25T01:27:00.589Z,100.0
2022-07-25T01:28:00.182Z,100.0
2022-07-25T01:29:00.179Z,100.0
2022-07-25T01:30:00.222Z,100.0
2022-07-25T01:31:00.237Z,100.0
2022-07-25T01:32:00.230Z,100.0
2022-07-25T01:33:00.194Z,100.0
2022-07-25T01:34:00.198Z,100.0
2022-07-25T01:35:00.432Z,100.0
2022-07-25T01:36:00.192Z,100.0
2022-07-25T01:37:00.185Z,100.0
2022-07-25T01:38:00.491Z,100.0
2022-07-25T01:39:00.198Z,100.0
2022-07-25T01:40:00.561Z,100.0
2022-07-25T01:41:00.176Z,100.0
2022-07-25T01:42:00.199Z,100.0
2022-07-25T01:43:00.221Z,100.0
2022-07-25T01:44:00.157Z,100.0
2022-07-25T01:45:00.600Z,100.0
2022-07-25T01:46:00.230Z,100.0
2022-07-25T01:47:00.185Z,100.0
2022-07-25T01:48:00.186Z,100.0
2022-07-25T01:49:00.224Z,100.0
2022-07-25T01:50:00.197Z,100.0
2022-07-25T01:51:00.215Z,100.0
2022-07-25T01:52:00.254Z,100.0
2022-07-25T01:53:00.161Z,100.0
2022-07-25T01:54:00.153Z,100.0
2022-07-25T01:55:00.210Z,100.0
2022-07-25T01:56:00.310Z,100.0
2022-07-25T01:57:00.174Z,100.0
2022-07-25T01:58:00.193Z,100.0
2022-07-25T01:59:00.191Z,100.0
2022-07-25T02:00:00.305Z,100.0
2022-07-25T02:01:00.271Z,100.0
2022-07-25T02:02:00.349Z,100.0
2022-07-25T02:03:00.190Z,100.0
2022-07-25T02:04:00.176Z,100.0
2022-07-25T02:05:00.295Z,100.0
2022-07-25T02:06:01.499Z,100.0
2022-07-25T02:07:00.210Z,100.0
2022-07-25T02:08:00.167Z,100.0
2022-07-25T02:09:00.469Z,100.0
2022-07-25T02:10:00.228Z,100.0
2022-07-25T02:11:00.433Z,100.0
2022-07-25T02:12:00.241Z,100.0
2022-07-25T02:13:00.217Z,100.0
2022-07-25T02:14:00.152Z,100.0
2022-07-25T02:15:00.187Z,100.0
2022-07-25T02:16:00.492Z,100.0
2022-07-25T02:17:00.242Z,100.0
2022-07-25T02:18:00.194Z,100.0
2022-07-25T02:19:00.153Z,100.0
2022-07-25T02:20:00.181Z,100.0
2022-07-25T02:21:00.328Z,100.0
2022-07-25T02:22:00.177Z,100.0
2022-07-25T02:23:00.180Z,100.0
2022-07-25T02:24:00.463Z,100.0
2022-07-25T02:25:00.386Z,100.0
2022-07-25T02:26:00.155Z,100.0
2022-07-25T02:27:00.145Z,100.0
2022-07-25T02:28:00.370Z,100.0
2022-07-25T02:29:00.147Z,100.0
2022-07-25T02:30:00.206Z,100.0
2022-07-25T02:31:00.247Z,100.0
2022-07-25T02:32:00.169Z,100.0
2022-07-25T02:33:00.206Z,100.0
2022-07-25T02:34:00.164Z,100.0
2022-07-25T02:35:00.164Z,100.0
2022-07-25T02:36:00.171Z,100.0
2022-07-25T02:37:00.176Z,100.0
2022-07-25T02:38:00.977Z,100.0
2022-07-25T02:39:00.173Z,100.0
2022-07-25T02:40:00.168Z,100.0
2022-07-25T02:41:00.194Z,100.0
2022-07-25T02:42:00.166Z,100.0
2022-07-25T02:43:00.158Z,100.0
2022-07-25T02:44:00.161Z,100.0
2022-07-25T02:45:00.658Z,100.0
2022-07-25T02:46:00.286Z,100.0
2022-07-25T02:47:00.193Z,100.0
2022-07-25T02:48:00.153Z,100.0
2022-07-25T02:49:00.859Z,100.0
2022-07-25T02:50:00.244Z,100.0
2022-07-25T02:51:00.168Z,100.0
2022-07-25T02:52:00.167Z,100.0
2022-07-25T02:53:00.155Z,100.0
2022-07-25T02:54:00.180Z,100.0
2022-07-25T02:55:00.171Z,100.0
2022-07-25T02:56:00.187Z,100.0
2022-07-25T02:57:00.192Z,100.0
2022-07-25T02:58:00.170Z,100.0
2022-07-25T02:59:00.163Z,100.0
2022-07-25T03:00:00.201Z,100.0
2022-07-25T03:01:00.178Z,100.0
2022-07-25T03:02:00.184Z,100.0
2022-07-25T03:03:00.160Z,100.0
2022-07-25T03:04:00.252Z,100.0
2022-07-25T03:05:00.203Z,100.0
2022-07-25T03:06:00.168Z,100.0
2022-07-25T03:07:00.175Z,100.0
2022-07-25T03:08:00.233Z,100.0
2022-07-25T03:09:00.177Z,100.0
2022-07-25T03:10:00.414Z,100.0
2022-07-25T03:11:00.238Z,100.0
2022-07-25T03:12:00.175Z,100.0
2022-07-25T03:13:00.167Z,100.0
2022-07-25T03:14:00.173Z,100.0
2022-07-25T03:15:00.612Z,100.0
2022-07-25T03:16:00.169Z,100.0
2022-07-25T03:17:00.253Z,100.0
2022-07-25T03:18:00.160Z,100.0
2022-07-25T03:19:00.154Z,100.0
2022-07-25T03:20:00.235Z,100.0
2022-07-25T03:21:00.170Z,100.0
2022-07-25T03:22:00.171Z,100.0
2022-07-25T03:23:00.152Z,100.0
2022-07-25T03:24:00.157Z,100.0
2022-07-25T03:25:00.175Z,100.0
2022-07-25T03:26:00.161Z,100.0
2022-07-25T03:27:00.176Z,100.0
2022-07-25T03:28:00.159Z,100.0
2022-07-25T03:29:00.170Z,100.0
2022-07-25T03:30:00.224Z,100.0
2022-07-25T03:31:00.324Z,100.0
2022-07-25T03:32:00.266Z,100.0
2022-07-25T03:33:00.151Z,100.0
2022-07-25T03:34:00.170Z,100.0
2022-07-25T03:35:00.156Z,100.0
2022-07-25T03:36:00.171Z,100.0
2022-07-25T03:37:00.524Z,100.0
2022-07-25T03:38:00.166Z,100.0
2022-07-25T03:39:00.159Z,100.0
2022-07-25T03:40:00.304Z,100.0
2022-07-25T03:41:00.169Z,100.0
2022-07-25T03:42:00.167Z,100.0
2022-07-25T03:43:00.165Z,100.0
2022-07-25T03:44:00.210Z,100.0
2022-07-25T03:45:00.306Z,100.0
2022-07-25T03:46:00.304Z,100.0
2022-07-25T03:47:00.152Z,100.0
2022-07-25T03:48:00.183Z,100.0
2022-07-25T03:49:00.265Z,100.0
2022-07-25T03:50:00.207Z,100.0
2022-07-25T03:51:04.836Z,100.0
2022-07-25T03:52:00.383Z,100.0
2022-07-25T03:53:00.151Z,100.0
2022-07-25T03:54:00.180Z,100.0
2022-07-25T03:55:00.178Z,100.0
2022-07-25T03:56:00.174Z,100.0
2022-07-25T03:57:00.159Z,100.0
2022-07-25T03:58:00.155Z,100.0
2022-07-25T03:59:00.171Z,100.0
2022-07-25T04:00:00.373Z,100.0
2022-07-25T04:01:00.214Z,100.0
2022-07-25T04:02:00.249Z,100.0
2022-07-25T04:03:00.161Z,100.0
2022-07-25T04:04:00.353Z,100.0
2022-07-25T04:05:00.226Z,100.0
2022-07-25T04:06:00.208Z,100.0
2022-07-25T04:07:00.151Z,100.0
2022-07-25T04:08:00.162Z,100.0
2022-07-25T04:09:00.177Z,100.0
2022-07-25T04:10:00.187Z,100.0
2022-07-25T04:11:00.158Z,100.0
2022-07-25T04:12:00.195Z,100.0
2022-07-25T04:13:01.269Z,100.0
2022-07-25T04:14:00.888Z,100.0
2022-07-25T04:15:00.172Z,100.0
2022-07-25T04:16:00.147Z,100.0
2022-07-25T04:17:00.398Z,100.0
2022-07-25T04:18:00.151Z,100.0
2022-07-25T04:19:01.179Z,100.0
2022-07-25T04:20:00.224Z,100.0
2022-07-25T04:21:00.352Z,100.0
2022-07-25T04:22:00.165Z,100.0
2022-07-25T04:23:00.173Z,100.0
2022-07-25T04:24:00.181Z,100.0
2022-07-25T04:25:00.172Z,100.0
2022-07-25T04:26:00.185Z,100.0
2022-07-25T04:27:00.185Z,100.0
2022-07-25T04:28:00.146Z,100.0
2022-07-25T04:29:00.279Z,100.0
2022-07-25T04:30:00.264Z,100.0
2022-07-25T04:31:00.168Z,100.0
2022-07-25T04:32:00.263Z,100.0
2022-07-25T04:33:00.213Z,100.0
2022-07-25T04:34:00.186Z,100.0
2022-07-25T04:35:00.183Z,100.0
2022-07-25T04:36:00.172Z,100.0
2022-07-25T04:37:00.177Z,100.0
2022-07-25T04:38:00.191Z,100.0
2022-07-25T04:39:00.161Z,100.0
2022-07-25T04:40:00.177Z,100.0
2022-07-25T04:41:00.234Z,100.0
2022-07-25T04:42:00.193Z,100.0
2022-07-25T04:43:00.158Z,100.0
2022-07-25T04:44:00.174Z,100.0
2022-07-25T04:45:00.152Z,100.0
2022-07-25T04:46:00.261Z,100.0
2022-07-25T04:47:00.154Z,100.0
2022-07-25T04:48:00.471Z,100.0
2022-07-25T04:49:00.261Z,100.0
2022-07-25T04:50:00.234Z,100.0
2022-07-25T04:51:00.187Z,100.0
2022-07-25T04:52:00.182Z,100.0
2022-07-25T04:53:00.165Z,100.0
2022-07-25T04:54:00.184Z,100.0
2022-07-25T04:55:00.150Z,100.0
2022-07-25T04:56:00.207Z,100.0
2022-07-25T04:57:00.155Z,100.0
2022-07-25T04:58:00.185Z,100.0
2022-07-25T04:59:06.175Z,100.0
2022-07-25T05:00:00.184Z,100.0
2022-07-25T05:01:00.246Z,100.0
2022-07-25T05:02:00.431Z,100.0
2022-07-25T05:03:00.154Z,100.0
2022-07-25T05:04:00.215Z,100.0
2022-07-25T05:05:03.285Z,100.0
2022-07-25T05:06:00.159Z,100.0
2022-07-25T05:07:00.164Z,100.0
2022-07-25T05:08:00.203Z,100.0
2022-07-25T05:09:00.160Z,100.0
2022-07-25T05:10:00.404Z,100.0
2022-07-25T05:11:00.312Z,100.0
2022-07-25T05:12:00.149Z,100.0
2022-07-25T05:13:00.167Z,100.0
2022-07-25T05:14:00.164Z,100.0
2022-07-25T05:15:00.214Z,100.0
2022-07-25T05:16:00.575Z,100.0
2022-07-25T05:17:00.273Z,100.0
2022-07-25T05:18:00.215Z,100.0
2022-07-25T05:19:00.153Z,100.0
2022-07-25T05:20:00.179Z,100.0
2022-07-25T05:21:00.390Z,100.0
2022-07-25T05:22:00.195Z,100.0
2022-07-25T05:23:00.176Z,100.0
2022-07-25T05:24:00.151Z,100.0
2022-07-25T05:25:00.175Z,100.0
2022-07-25T05:26:00.164Z,100.0
2022-07-25T05:27:00.793Z,100.0
2022-07-25T05:28:00.196Z,100.0
2022-07-25T05:29:00.148Z,100.0
2022-07-25T05:30:00.179Z,100.0
2022-07-25T05:31:00.170Z,100.0
2022-07-25T05:32:00.306Z,100.0
2022-07-25T05:33:00.171Z,100.0
2022-07-25T05:34:00.173Z,100.0
2022-07-25T05:35:00.160Z,100.0
2022-07-25T05:36:00.188Z,100.0
2022-07-25T05:37:00.160Z,100.0
2022-07-25T05:38:00.360Z,100.0
2022-07-25T05:39:00.291Z,100.0
2022-07-25T05:40:00.299Z,100.0
2022-07-25T05:41:00.161Z,100.0
2022-07-25T05:42:00.168Z,100.0
2022-07-25T05:43:03.188Z,100.0
2022-07-25T05:44:00.154Z,100.0
2022-07-25T05:45:00.420Z,100.0
2022-07-25T05:46:01.146Z,100.0
2022-07-25T05:47:00.273Z,100.0
2022-07-25T05:48:00.163Z,100.0
2022-07-25T05:49:00.335Z,100.0
2022-07-25T05:50:00.176Z,100.0
2022-07-25T05:51:00.159Z,100.0
2022-07-25T05:52:00.154Z,100.0
2022-07-25T05:53:00.168Z,100.0
2022-07-25T05:54:00.167Z,100.0
2022-07-25T05:55:00.264Z,100.0
2022-07-25T05:56:00.299Z,100.0
2022-07-25T05:57:00.564Z,100.0
2022-07-25T05:58:00.166Z,100.0
2022-07-25T05:59:00.170Z,100.0
2022-07-25T06:00:00.171Z,100.0
2022-07-25T06:01:00.164Z,100.0
2022-07-25T06:02:00.815Z,100.0
2022-07-25T06:03:00.438Z,100.0
2022-07-25T06:04:00.210Z,100.0
2022-07-25T06:05:00.221Z,100.0
2022-07-25T06:06:00.181Z,100.0
2022-07-25T06:07:00.293Z,100.0
2022-07-25T06:08:00.169Z,100.0
2022-07-25T06:09:00.172Z,100.0
2022-07-25T06:10:00.201Z,100.0
2022-07-25T06:11:00.469Z,100.0
2022-07-25T06:12:01.259Z,100.0
2022-07-25T06:13:00.211Z,100.0
2022-07-25T06:14:00.172Z,100.0
2022-07-25T06:15:00.160Z,100.0
2022-07-25T06:16:00.660Z,100.0
2022-07-25T06:17:00.148Z,100.0
2022-07-25T06:18:00.158Z,100.0
2022-07-25T06:19:00.156Z,100.0
2022-07-25T06:20:00.227Z,100.0
2022-07-25T06:21:00.161Z,100.0
2022-07-25T06:22:00.161Z,100.0
2022-07-25T06:23:00.173Z,100.0
2022-07-25T06:24:00.185Z,100.0
2022-07-25T06:25:01.063Z,100.0
2022-07-25T06:26:00.162Z,100.0
2022-07-25T06:27:00.169Z,100.0
2022-07-25T06:28:00.213Z,100.0
2022-07-25T06:29:00.155Z,100.0
2022-07-25T06:30:01.609Z,100.0
2022-07-25T06:31:00.237Z,100.0
2022-07-25T06:32:00.256Z,100.0
2022-07-25T06:33:00.204Z,100.0
2022-07-25T06:34:00.170Z,100.0
2022-07-25T06:35:00.338Z,100.0
2022-07-25T06:36:00.173Z,100.0
2022-07-25T06:37:00.158Z,100.0
2022-07-25T06:38:00.271Z,100.0
2022-07-25T06:39:00.214Z,100.0
2022-07-25T06:40:00.227Z,100.0
2022-07-25T06:41:00.161Z,100.0
2022-07-25T06:42:00.160Z,100.0
2022-07-25T06:43:00.169Z,100.0
2022-07-25T06:44:00.185Z,100.0
2022-07-25T06:45:02.430Z,100.0
2022-07-25T06:46:00.194Z,100.0
2022-07-25T06:47:00.478Z,100.0
2022-07-25T06:48:00.166Z,100.0
2022-07-25T06:49:00.268Z,100.0
2022-07-25T06:50:00.341Z,100.0
2022-07-25T06:51:00.327Z,100.0
2022-07-25T06:52:00.165Z,100.0
2022-07-25T06:53:00.161Z,100.0
2022-07-25T06:54:00.254Z,100.0
2022-07-25T06:55:00.474Z,100.0
2022-07-25T06:56:00.193Z,100.0
2022-07-25T06:57:00.158Z,100.0
2022-07-25T06:58:00.142Z,100.0
2022-07-25T06:59:00.176Z,100.0
2022-07-25T07:00:00.431Z,100.0
2022-07-25T07:01:00.276Z,100.0
2022-07-25T07:02:00.159Z,100.0
2022-07-25T07:03:00.980Z,100.0
2022-07-25T07:04:00.194Z,100.0
2022-07-25T07:05:00.195Z,100.0
2022-07-25T07:06:00.154Z,100.0
2022-07-25T07:07:00.154Z,100.0
2022-07-25T07:08:00.356Z,100.0
2022-07-25T07:09:00.166Z,100.0
2022-07-25T07:10:00.186Z,100.0
2022-07-25T07:11:00.205Z,100.0
2022-07-25T07:12:00.176Z,100.0
2022-07-25T07:13:08.688Z,100.0
2022-07-25T07:14:00.721Z,100.0
2022-07-25T07:15:00.176Z,100.0
2022-07-25T07:16:00.246Z,100.0
2022-07-25T07:17:00.154Z,100.0
2022-07-25T07:18:00.206Z,100.0
2022-07-25T07:19:00.171Z,100.0
2022-07-25T07:20:00.558Z,100.0
2022-07-25T07:21:00.168Z,100.0
2022-07-25T07:22:00.189Z,100.0
2022-07-25T07:23:00.222Z,100.0
2022-07-25T07:24:00.171Z,100.0
2022-07-25T07:25:00.162Z,100.0
2022-07-25T07:26:00.200Z,100.0
2022-07-25T07:27:00.163Z,100.0
2022-07-25T07:28:00.191Z,100.0
2022-07-25T07:29:00.202Z,100.0
2022-07-25T07:30:00.171Z,100.0
2022-07-25T07:31:16.386Z,100.0
2022-07-25T07:32:00.275Z,100.0
2022-07-25T07:33:00.178Z,100.0
2022-07-25T07:34:00.194Z,100.0
2022-07-25T07:35:00.187Z,100.0
2022-07-25T07:36:00.996Z,100.0
2022-07-25T07:37:00.161Z,100.0
2022-07-25T07:38:00.172Z,100.0
2022-07-25T07:39:00.169Z,100.0
2022-07-25T07:40:00.200Z,100.0
2022-07-25T07:41:00.194Z,100.0
2022-07-25T07:42:00.169Z,100.0
2022-07-25T07:43:00.157Z,100.0
2022-07-25T07:44:00.181Z,100.0
2022-07-25T07:45:00.170Z,100.0
2022-07-25T07:46:00.314Z,100.0
2022-07-25T07:47:00.303Z,100.0
2022-07-25T07:48:00.440Z,100.0
2022-07-25T07:49:00.258Z,100.0
2022-07-25T07:50:00.173Z,100.0
2022-07-25T07:51:00.566Z,100.0
2022-07-25T07:52:00.177Z,100.0
2022-07-25T07:53:00.180Z,100.0
2022-07-25T07:54:00.156Z,100.0
2022-07-25T07:55:00.169Z,100.0
2022-07-25T07:56:00.160Z,100.0
2022-07-25T07:57:00.166Z,100.0
2022-07-25T07:58:00.605Z,100.0
2022-07-25T07:59:00.201Z,100.0
2022-07-25T08:00:00.193Z,100.0
2022-07-25T08:01:00.167Z,100.0
2022-07-25T08:02:00.349Z,100.0
2022-07-25T08:03:00.662Z,100.0
2022-07-25T08:04:00.167Z,100.0
2022-07-25T08:05:00.182Z,100.0
2022-07-25T08:06:00.193Z,100.0
2022-07-25T08:07:00.173Z,100.0
2022-07-25T08:08:00.562Z,100.0
2022-07-25T08:09:00.157Z,100.0
2022-07-25T08:10:00.190Z,100.0
2022-07-25T08:11:00.246Z,100.0
2022-07-25T08:12:00.163Z,100.0
2022-07-25T08:13:00.424Z,100.0
2022-07-25T08:14:00.188Z,100.0
2022-07-25T08:15:00.184Z,100.0
2022-07-25T08:16:00.779Z,100.0
2022-07-25T08:17:00.184Z,100.0
2022-07-25T08:18:00.174Z,100.0
2022-07-25T08:19:00.213Z,100.0
2022-07-25T08:20:14.662Z,100.0
2022-07-25T08:21:00.844Z,100.0
2022-07-25T08:22:00.151Z,100.0
2022-07-25T08:23:00.182Z,100.0
2022-07-25T08:24:00.210Z,100.0
2022-07-25T08:25:00.185Z,100.0
2022-07-25T08:26:00.782Z,100.0
2022-07-25T08:27:00.158Z,100.0
2022-07-25T08:28:00.193Z,100.0
2022-07-25T08:29:18.228Z,100.0
2022-07-25T08:30:00.239Z,100.0
2022-07-25T08:31:00.302Z,100.0
2022-07-25T08:32:00.176Z,100.0
2022-07-25T08:33:01.233Z,100.0
2022-07-25T08:34:00.189Z,100.0
2022-07-25T08:35:00.249Z,100.0
2022-07-25T08:36:00.296Z,100.0
2022-07-25T08:37:00.184Z,100.0
2022-07-25T08:38:00.682Z,100.0
2022-07-25T08:39:00.173Z,100.0
2022-07-25T08:40:00.157Z,100.0
2022-07-25T08:41:01.310Z,100.0
2022-07-25T08:42:01.789Z,100.0
2022-07-25T08:43:00.192Z,100.0
2022-07-25T08:44:01.472Z,100.0
2022-07-25T08:45:02.522Z,100.0
2022-07-25T08:46:01.023Z,100.0
2022-07-25T08:47:00.751Z,100.0
2022-07-25T08:48:00.193Z,100.0
2022-07-25T08:49:01.005Z,100.0
2022-07-25T08:50:04.365Z,100.0
2022-07-25T08:51:01.351Z,100.0
2022-07-25T08:52:01.330Z,100.0
2022-07-25T08:53:30.331Z,100.0
2022-07-25T08:54:01.056Z,100.0
2022-07-25T08:55:01.638Z,100.0
2022-07-25T08:56:00.319Z,100.0
2022-07-25T08:57:00.168Z,100.0
2022-07-25T08:58:00.162Z,100.0
2022-07-25T08:59:00.165Z,100.0
2022-07-25T09:00:00.303Z,100.0
2022-07-25T09:01:00.154Z,100.0
2022-07-25T09:02:00.199Z,100.0
2022-07-25T09:03:01.723Z,100.0
2022-07-25T09:04:00.734Z,100.0
2022-07-25T09:05:00.162Z,100.0
2022-07-25T09:06:00.177Z,100.0
2022-07-25T09:07:02.070Z,100.0
2022-07-25T09:08:09.095Z,100.0
2022-07-25T09:09:00.652Z,100.0
2022-07-25T09:10:10.120Z,100.0
2022-07-25T09:11:00.154Z,100.0
2022-07-25T09:12:00.385Z,100.0
2022-07-25T09:13:00.154Z,100.0
2022-07-25T09:14:00.149Z,100.0
2022-07-25T09:15:00.243Z,100.0
2022-07-25T09:16:00.314Z,100.0
2022-07-25T09:17:05.322Z,100.0
2022-07-25T09:18:01.307Z,100.0
2022-07-25T09:19:10.095Z,100.0
2022-07-25T09:20:00.427Z,100.0
2022-07-25T09:21:00.184Z,100.0
2022-07-25T09:22:00.138Z,100.0
2022-07-25T09:23:00.171Z,100.0
2022-07-25T09:24:10.299Z,100.0
2022-07-25T09:25:00.188Z,100.0
2022-07-25T09:26:01.507Z,100.0
2022-07-25T09:27:06.400Z,100.0
2022-07-25T09:28:10.107Z,100.0
2022-07-25T09:29:00.158Z,100.0
2022-07-25T09:30:00.217Z,100.0
2022-07-25T09:31:00.850Z,100.0
2022-07-25T09:32:00.957Z,100.0
2022-07-25T09:33:00.508Z,100.0
2022-07-25T09:34:00.210Z,100.0
2022-07-25T09:35:00.174Z,100.0
2022-07-25T09:36:08.661Z,100.0
2022-07-25T09:37:01.169Z,100.0
2022-07-25T09:38:08.589Z,100.0
2022-07-25T09:39:00.992Z,100.0
2022-07-25T09:40:00.335Z,100.0
2022-07-25T09:41:01.654Z,100.0
2022-07-25T09:42:00.159Z,100.0
2022-07-25T09:43:00.349Z,100.0
2022-07-25T09:44:00.169Z,100.0
2022-07-25T09:45:02.435Z,100.0
2022-07-25T09:46:00.242Z,100.0
2022-07-25T09:47:08.894Z,100.0
2022-07-25T09:48:02.214Z,100.0
2022-07-25T09:49:00.251Z,100.0
2022-07-25T09:50:00.264Z,100.0
2022-07-25T09:51:00.663Z,100.0
2022-07-25T09:52:00.235Z,100.0
2022-07-25T09:53:01.081Z,100.0
2022-07-25T09:54:01.987Z,100.0
2022-07-25T09:55:01.314Z,100.0
2022-07-25T09:56:00.338Z,100.0
2022-07-25T09:57:00.231Z,100.0
2022-07-25T09:58:00.223Z,100.0
2022-07-25T09:59:00.478Z,100.0
2022-07-25T10:00:00.443Z,100.0
2022-07-25T10:01:02.117Z,100.0
2022-07-25T10:02:07.021Z,100.0
2022-07-25T10:03:00.200Z,100.0
2022-07-25T10:04:00.148Z,100.0
2022-07-25T10:05:07.507Z,100.0
2022-07-25T10:06:06.592Z,100.0
2022-07-25T10:07:02.311Z,99.9
2022-07-25T10:08:04.764Z,99.9
2022-07-25T10:09:00.186Z,99.9
2022-07-25T10:10:00.232Z,99.9
2022-07-25T10:11:00.204Z,100.0
2022-07-25T10:12:01.963Z,100.0
2022-07-25T10:13:03.257Z,100.0
2022-07-25T10:14:08.696Z,100.0
2022-07-25T10:15:08.796Z,100.0
2022-07-25T10:16:00.571Z,100.0
2022-07-25T10:17:00.414Z,100.0
2022-07-25T10:18:02.260Z,100.0
2022-07-25T10:19:00.194Z,100.0
2022-07-25T10:20:00.772Z,100.0
2022-07-25T10:21:24.551Z,100.0
2022-07-25T10:22:00.177Z,100.0
2022-07-25T10:23:00.290Z,99.5
2022-07-25T10:24:02.076Z,99.5
2022-07-25T10:25:06.665Z,100.0
2022-07-25T10:26:02.021Z,100.0
2022-07-25T10:27:06.558Z,100.0
2022-07-25T10:28:06.343Z,100.0
2022-07-25T10:29:00.165Z,100.0
2022-07-25T10:30:00.176Z,100.0
2022-07-25T10:31:00.248Z,98.3
2022-07-25T10:32:08.066Z,98.3
2022-07-25T10:33:01.681Z,98.7
2022-07-25T10:34:02.746Z,98.7
2022-07-25T10:35:10.110Z,98.4
2022-07-25T10:36:07.696Z,98.4
2022-07-25T10:37:08.557Z,96.5
2022-07-25T10:38:02.098Z,96.5
2022-07-25T10:39:00.340Z,97.0
2022-07-25T10:40:00.197Z,97.0
2022-07-25T10:41:00.563Z,96.2
2022-07-25T10:42:00.219Z,96.2
2022-07-25T10:43:01.159Z,96.0
2022-07-25T10:44:00.370Z,96.0
2022-07-25T10:45:00.926Z,98.5
2022-07-25T10:46:00.258Z,98.5
2022-07-25T10:47:08.271Z,95.8
2022-07-25T10:48:05.384Z,95.8
2022-07-25T10:49:01.652Z,95.6
2022-07-25T10:50:18.721Z,95.6
2022-07-25T10:51:01.398Z,97.0
2022-07-25T10:52:00.880Z,97.0
2022-07-25T10:53:00.194Z,94.4
2022-07-25T10:54:10.106Z,94.4
2022-07-25T10:55:00.346Z,92.6
2022-07-25T10:56:06.319Z,92.6
2022-07-25T10:57:00.342Z,93.6
2022-07-25T10:58:16.628Z,93.6
2022-07-25T10:59:00.439Z,96.6
2022-07-25T11:00:04.275Z,96.6
2022-07-25T11:01:00.242Z,91.6
2022-07-25T11:02:01.138Z,91.6
2022-07-25T11:03:00.260Z,92.2
2022-07-25T11:04:01.623Z,92.2
2022-07-25T11:05:01.189Z,90.5
2022-07-25T11:06:00.264Z,90.5
2022-07-25T11:07:10.091Z,90.2
2022-07-25T11:08:20.559Z,90.2
2022-07-25T11:09:00.206Z,91.9
2022-07-25T11:10:01.937Z,91.9
2022-07-25T11:11:00.652Z,90.5
2022-07-25T11:12:00.224Z,90.5
2022-07-25T11:13:00.268Z,88.2
2022-07-25T11:14:00.286Z,88.2
2022-07-25T11:15:01.925Z,89.9
2022-07-25T11:16:00.235Z,89.9
2022-07-25T11:17:10.248Z,88.9
2022-07-25T11:18:00.169Z,88.9
2022-07-25T11:19:00.170Z,88.7
2022-07-25T11:20:00.249Z,88.7
2022-07-25T11:21:05.780Z,88.3
2022-07-25T11:22:00.935Z,88.3
2022-07-25T11:23:00.182Z,90.8
2022-07-25T11:24:00.153Z,90.8
2022-07-25T11:25:01.024Z,91.9
2022-07-25T11:26:04.130Z,91.9
2022-07-25T11:27:00.184Z,90.9
2022-07-25T11:28:00.584Z,90.9
2022-07-25T11:29:00.182Z,90.7
2022-07-25T11:30:10.117Z,90.7
2022-07-25T11:31:03.712Z,90.5
2022-07-25T11:32:01.532Z,90.5
2022-07-25T11:33:00.185Z,88.0
2022-07-25T11:34:00.210Z,88.0
2022-07-25T11:35:00.199Z,88.4
2022-07-25T11:36:00.704Z,88.4
2022-07-25T11:37:01.789Z,89.7
2022-07-25T11:38:01.020Z,89.7
2022-07-25T11:39:00.263Z,90.1
2022-07-25T11:40:00.400Z,90.1
2022-07-25T11:41:00.250Z,91.3
2022-07-25T11:42:04.556Z,91.3
2022-07-25T11:43:00.256Z,89.2
2022-07-25T11:44:00.183Z,89.2
2022-07-25T11:45:00.178Z,86.5
2022-07-25T11:46:02.840Z,86.5
2022-07-25T11:47:00.570Z,89.5
2022-07-25T11:48:04.539Z,89.5
2022-07-25T11:49:04.067Z,88.8
2022-07-25T11:50:01.322Z,88.8
2022-07-25T11:51:08.754Z,87.7
2022-07-25T11:52:00.146Z,87.7
2022-07-25T11:53:01.296Z,87.9
2022-07-25T11:54:06.413Z,87.9
2022-07-25T11:55:01.898Z,86.9
2022-07-25T11:56:32.155Z,86.9
2022-07-25T11:57:00.207Z,88.5
2022-07-25T11:58:00.777Z,88.5
2022-07-25T11:59:00.350Z,86.9
2022-07-25T12:00:01.382Z,86.9
2022-07-25T12:01:00.247Z,87.0
2022-07-25T12:02:00.221Z,87.0
2022-07-25T12:03:08.412Z,86.0
2022-07-25T12:04:08.329Z,86.0
2022-07-25T12:05:01.687Z,84.7
2022-07-25T12:06:05.788Z,84.7
2022-07-25T12:07:03.083Z,86.5
2022-07-25T12:08:08.601Z,86.5
2022-07-25T12:09:09.364Z,86.6
2022-07-25T12:10:00.333Z,86.6
2022-07-25T12:11:00.179Z,87.6
2022-07-25T12:12:01.542Z,87.6
2022-07-25T12:13:00.685Z,86.4
2022-07-25T12:14:02.173Z,86.4
2022-07-25T12:15:00.157Z,87.1
2022-07-25T12:16:00.239Z,87.1
2022-07-25T12:17:00.230Z,87.1
2022-07-25T12:18:00.796Z,87.1
2022-07-25T12:19:00.278Z,86.4
2022-07-25T12:20:00.174Z,86.4
2022-07-25T12:21:00.177Z,86.9
2022-07-25T12:22:00.169Z,86.9
2022-07-25T12:23:01.684Z,88.2
2022-07-25T12:24:00.181Z,88.2
2022-07-25T12:25:00.171Z,89.2
2022-07-25T12:26:00.239Z,89.2
2022-07-25T12:27:00.169Z,90.1
2022-07-25T12:28:00.160Z,90.1
2022-07-25T12:29:00.189Z,89.8
2022-07-25T12:30:00.207Z,89.8
2022-07-25T12:31:00.268Z,92.1
2022-07-25T12:32:00.163Z,92.1
2022-07-25T12:33:00.473Z,90.2
2022-07-25T12:34:00.183Z,90.2
2022-07-25T12:35:00.273Z,89.7
2022-07-25T12:36:04.033Z,89.7
2022-07-25T12:37:00.173Z,89.2
2022-07-25T12:38:00.159Z,89.2
2022-07-25T12:39:00.624Z,88.5
2022-07-25T12:40:00.349Z,88.5
2022-07-25T12:41:00.180Z,87.3
2022-07-25T12:42:00.181Z,87.3
2022-07-25T12:43:00.243Z,84.7
2022-07-25T12:44:00.164Z,84.7
2022-07-25T12:45:00.241Z,84.6
2022-07-25T12:46:00.241Z,84.6
2022-07-25T12:47:00.732Z,83.8
2022-07-25T12:48:00.285Z,83.8
2022-07-25T12:49:01.297Z,84.4
2022-07-25T12:50:00.325Z,84.4
2022-07-25T12:51:00.179Z,84.6
2022-07-25T12:52:00.191Z,84.6
2022-07-25T12:53:00.193Z,84.6
2022-07-25T12:54:00.169Z,84.6
2022-07-25T12:55:00.203Z,86.0
2022-07-25T12:56:00.182Z,86.0
2022-07-25T12:57:00.246Z,88.9